createdAt,value
2023-03-19T00:04:29.212Z,11.29
2023-03-19T00:10:52.228Z,11.37
2023-03-19T00:17:12.292Z,11.38
2023-03-19T00:23:35.187Z,11.38
2023-03-19T00:29:55.287Z,11.36
2023-03-19T00:36:18.278Z,11.28
2023-03-19T00:42:38.224Z,11.22
2023-03-19T00:49:01.200Z,11.19
2023-03-19T00:55:21.235Z,11.16
2023-03-19T01:01:44.353Z,11.15
2023-03-19T01:08:04.190Z,11.15
2023-03-19T01:14:27.181Z,11.11
2023-03-19T01:20:47.205Z,11.08
2023-03-19T01:27:10.171Z,10.99
2023-03-19T01:33:30.224Z,10.98
2023-03-19T01:39:53.188Z,10.99
2023-03-19T01:46:13.277Z,11.01
2023-03-19T01:52:36.243Z,10.99
2023-03-19T01:58:56.240Z,10.97
2023-03-19T02:05:19.141Z,10.91
2023-03-19T02:11:39.213Z,10.84
2023-03-19T02:18:02.217Z,10.77
2023-03-19T02:24:22.244Z,10.67
2023-03-19T02:30:45.172Z,10.54
2023-03-19T02:37:05.172Z,10.46
2023-03-19T02:43:28.192Z,10.42
2023-03-19T02:49:48.219Z,10.39
2023-03-19T02:56:11.139Z,10.38
2023-03-19T03:02:31.331Z,10.38
2023-03-19T03:08:54.195Z,10.39
2023-03-19T03:15:14.173Z,10.38
2023-03-19T03:21:37.178Z,10.39
2023-03-19T03:27:57.234Z,10.37
2023-03-19T03:34:20.225Z,10.35
2023-03-19T03:40:40.162Z,10.38
2023-03-19T03:47:03.249Z,10.43
2023-03-19T03:53:23.261Z,10.45
2023-03-19T03:59:46.199Z,10.46
2023-03-19T04:06:06.266Z,10.42
2023-03-19T04:12:29.316Z,10.42
2023-03-19T04:18:49.187Z,10.39
2023-03-19T04:25:12.238Z,10.32
2023-03-19T04:48:17.697Z,10.24
2023-03-19T04:54:37.175Z,10.26
2023-03-19T05:01:00.356Z,10.25
2023-03-19T05:07:20.205Z,10.2
2023-03-19T05:13:43.238Z,10.15
2023-03-19T05:20:03.196Z,10.11
2023-03-19T05:26:26.255Z,10.07
2023-03-19T05:32:46.258Z,9.95
2023-03-19T05:39:09.176Z,9.86
2023-03-19T05:45:29.199Z,9.85
2023-03-19T05:51:52.170Z,9.85
2023-03-19T05:58:12.206Z,9.86
2023-03-19T06:04:35.268Z,9.89
2023-03-19T06:10:55.262Z,9.95
2023-03-19T06:17:18.163Z,10.08
2023-03-19T06:23:38.219Z,10.21
2023-03-19T06:30:01.214Z,10.33
2023-03-19T06:36:21.220Z,10.46
2023-03-19T06:42:44.218Z,10.57
2023-03-19T06:49:04.174Z,10.66
2023-03-19T06:55:27.246Z,10.77
2023-03-19T07:01:47.213Z,10.9
2023-03-19T07:08:10.276Z,11.02
2023-03-19T07:14:30.232Z,11.11
2023-03-19T07:20:53.197Z,11.22
2023-03-19T07:27:13.202Z,11.36
2023-03-19T07:33:36.203Z,11.56
2023-03-19T07:39:56.243Z,11.71
2023-03-19T07:46:19.208Z,11.81
2023-03-19T07:52:39.169Z,11.9
2023-03-19T07:59:02.264Z,12.08
2023-03-19T08:05:22.140Z,12.28
2023-03-19T08:11:45.224Z,12.51
2023-03-19T08:18:05.257Z,12.63
2023-03-19T08:24:28.192Z,12.72
2023-03-19T08:30:48.166Z,12.86
2023-03-19T08:37:11.202Z,12.98
2023-03-19T08:43:31.203Z,13.09
2023-03-19T08:49:54.174Z,13.1
2023-03-19T08:56:14.234Z,12.96
2023-03-19T09:02:37.193Z,12.87
2023-03-19T09:08:57.334Z,12.82
2023-03-19T09:15:20.213Z,12.81
2023-03-19T09:21:40.175Z,12.89
2023-03-19T09:28:03.230Z,12.96
2023-03-19T09:34:23.224Z,13.03
2023-03-19T09:40:46.206Z,13.01
2023-03-19T09:47:06.246Z,13.08
2023-03-19T10:03:01.988Z,13.28
2023-03-19T10:09:20.166Z,13.16
2023-03-19T10:15:43.169Z,13.08
2023-03-19T10:22:03.311Z,13.06
2023-03-19T10:28:26.167Z,13.04
2023-03-19T10:34:46.193Z,13.02
2023-03-19T10:41:09.227Z,13.07
2023-03-19T10:47:29.188Z,13.04
2023-03-19T10:53:52.241Z,13.27
2023-03-19T11:00:12.172Z,13.54
2023-03-19T11:06:35.202Z,13.83
2023-03-19T11:12:55.228Z,14
2023-03-19T11:19:18.175Z,13.92
2023-03-19T11:25:38.195Z,13.87
2023-03-19T11:32:06.100Z,13.81
2023-03-19T11:38:21.232Z,13.78
2023-03-19T11:44:44.206Z,13.71
2023-03-19T11:51:04.157Z,13.85
2023-03-19T11:57:27.235Z,14.01
2023-03-19T12:03:47.169Z,14.18
2023-03-19T12:10:10.159Z,14.62
2023-03-19T12:16:30.360Z,14.94
2023-03-19T12:22:53.187Z,15.24
2023-03-19T12:29:13.205Z,15.7
2023-03-19T12:35:36.357Z,16.32
2023-03-19T12:41:56.155Z,16.8
2023-03-19T12:48:19.185Z,16.68
2023-03-19T12:54:39.176Z,16.31
2023-03-19T13:01:02.246Z,15.94
2023-03-19T13:07:22.160Z,15.69
2023-03-19T13:13:45.196Z,15.79
2023-03-19T13:20:05.201Z,16.31
2023-03-19T13:26:28.157Z,16.59
2023-03-19T13:32:48.262Z,16.57
2023-03-19T13:39:11.210Z,16.37
2023-03-19T13:45:31.157Z,16.18
2023-03-19T13:51:54.197Z,15.88
2023-03-19T13:58:14.150Z,15.51
2023-03-19T14:04:37.166Z,15.28
2023-03-19T14:10:57.225Z,15.07
2023-03-19T14:17:20.184Z,14.66
2023-03-19T14:23:42.988Z,14.35
2023-03-19T14:30:03.227Z,14.13
2023-03-19T14:36:23.206Z,14.19
2023-03-19T14:42:46.226Z,14.35
2023-03-19T14:49:06.178Z,15.1
2023-03-19T14:55:29.186Z,15.72
2023-03-19T15:01:49.158Z,16.25
2023-03-19T15:08:12.220Z,16.11
2023-03-19T15:14:32.204Z,15.61
2023-03-19T15:20:55.175Z,15.13
2023-03-19T15:27:15.233Z,15.02
2023-03-19T15:43:24.695Z,14.97
2023-03-19T15:49:44.168Z,14.86
2023-03-19T15:56:07.167Z,14.75
2023-03-19T16:02:27.235Z,14.67
2023-03-19T16:08:50.191Z,14.55
2023-03-19T16:15:10.184Z,14.39
2023-03-19T16:21:33.201Z,14.2
2023-03-19T16:27:53.219Z,14.01
2023-03-19T16:34:16.212Z,13.81
2023-03-19T16:40:36.546Z,13.61
2023-03-19T16:46:59.213Z,13.43
2023-03-19T16:53:19.204Z,13.28
2023-03-19T16:59:42.235Z,13.16
2023-03-19T17:06:04.972Z,12.79
2023-03-19T17:12:25.169Z,12.31
2023-03-19T17:18:45.227Z,12.04
2023-03-19T17:25:08.167Z,11.97
2023-03-19T17:31:28.263Z,11.97
2023-03-19T17:37:51.267Z,12.09
2023-03-19T17:44:11.184Z,12.17
2023-03-19T17:50:34.580Z,12.23
2023-03-19T17:56:54.230Z,12.21
2023-03-19T18:03:17.263Z,12.1
2023-03-19T18:09:37.217Z,12.07
2023-03-19T18:16:00.229Z,12.08
2023-03-19T18:22:20.301Z,11.99
2023-03-19T18:28:43.221Z,11.96
2023-03-19T18:35:03.219Z,11.93
2023-03-19T18:41:26.192Z,11.89
2023-03-19T18:47:46.208Z,11.85
2023-03-19T18:54:09.348Z,11.83
2023-03-19T19:00:29.178Z,11.81
2023-03-19T19:06:52.170Z,11.71
2023-03-19T19:13:12.221Z,11.62
2023-03-19T19:19:35.255Z,11.62
2023-03-19T19:25:55.318Z,11.63
2023-03-19T19:32:18.228Z,11.61
2023-03-19T19:38:38.209Z,11.55
2023-03-19T19:45:01.187Z,11.51
2023-03-19T19:51:21.257Z,11.42
2023-03-19T19:57:44.214Z,11.36
2023-03-19T20:04:04.327Z,11.35
2023-03-19T20:10:27.250Z,11.36
2023-03-19T20:16:47.175Z,11.37
2023-03-19T20:23:10.188Z,11.33
2023-03-19T20:29:30.234Z,11.34
2023-03-19T20:35:53.337Z,11.32
2023-03-19T20:42:13.157Z,11.29
2023-03-19T21:05:56.093Z,11.29
2023-03-19T21:12:19.171Z,11.25
2023-03-19T21:18:39.164Z,11.23
2023-03-19T21:25:02.230Z,11.23
2023-03-19T21:31:22.149Z,11.17
2023-03-19T21:37:45.192Z,11.15
2023-03-19T21:44:05.335Z,11.16
2023-03-19T21:50:28.169Z,11.16
2023-03-19T21:56:48.194Z,11.16
2023-03-19T22:03:11.197Z,11.17
2023-03-19T22:09:31.200Z,11.16
2023-03-19T22:15:54.196Z,11.15
2023-03-19T22:22:14.202Z,11.13
2023-03-19T22:28:37.187Z,11.1
2023-03-19T22:34:57.164Z,11.04
2023-03-19T22:41:20.203Z,10.98
2023-03-19T22:47:40.188Z,10.9
2023-03-19T22:54:03.174Z,10.83
2023-03-19T23:00:23.215Z,10.77
2023-03-19T23:23:21.179Z,10.11
2023-03-19T23:29:41.188Z,10.07
2023-03-19T23:36:04.173Z,9.99
2023-03-19T23:42:24.244Z,9.92
2023-03-19T23:48:47.214Z,9.83
2023-03-19T23:55:07.204Z,9.79
